Dobrodošli na spletni strani vremenske postaje Senovo. Vse informacije so informativnega značaja, saj vremenska postaja ni del državne mreže meteoroloških postaj. AKTUALNIH OBVESTIL NI.


Posebna pozornost v zvezi z vremenskimi dogajanji ni potrebna.    Posebna pozornost v zvezi z vremenskimi dogajanji ni potrebna.

Pogled proti Armezu več informacij Pogled proti Armezu


Lisca več informacij Lisca


Radar strel več informacij blitzortung!


Radar padavin več informacij rain snow radar


Obiščite še:

Template documentation
and downloads

And another site



Weather Underground, zgodovina - Tekstovno

Dnevni povzetek za December 26, 2017 Enote:  Angleško    Metrično   Obe
« Predhodni Dan
Naslednji Dan »
Dnevni Tedenski Mesečni Letni Po meri
  Višja: Nižja: Povprečje:
Temperatura: TemperatureC °F 3.1 °F 8.1 °F
Točka rosišča: DewpointC °F -0.6 °F 4.3 °F
Vlažnost: Humidity % 63 % 78 %
Hitrost vetra: WindSpeedKMH mph 0.0 mph 4 mph
Sunki vetra: WindSpeedGustKMH mph - -
Veter:- - WSW
Zračni tlak: PressurehPa in 1008.0 in -
Padavine: 0.0 in    
Historical Graphs
 
 
Tabelarni podarki za December 26, 2017
Čas Temperatura Točka rosišča Zračni tlak Veter Hitrost vetra Sunki vetra Vlažnost Intenziteta padavin (urna)
TemperatureC °F DewpointC °F PressurehPa in Calm     Humidity % HourlyPrecipMM in
00:00 5.3 °F 4.3 °F 1016.8 in South 3.2 mph 11.1 mph 93 % 0.0 in
00:04 5.6 °F 4.7 °F 1016.8 in South 3.7 mph 11.1 mph 94 % 0.0 in
00:09 5.7 °F 4.8 °F 1016.8 in SSW 4.5 mph 11.9 mph 94 % 0.0 in
00:10 5.8 °F 4.9 °F 1016.8 in South 4.5 mph 11.9 mph 94 % 0.0 in
00:15 6.0 °F 5.1 °F 1016.8 in SSW 5.0 mph 11.9 mph 94 % 0.0 in
00:17 6.1 °F 5.2 °F 1016.8 in SW 4.3 mph 10.1 mph 94 % 0.0 in
00:22 6.4 °F 5.5 °F 1016.8 in NNE 4.0 mph 10.1 mph 94 % 0.0 in
00:23 6.4 °F 5.5 °F 1016.8 in NE 3.7 mph 10.1 mph 94 % 0.0 in
00:28 6.5 °F 5.6 °F 1016.8 in SE 2.7 mph 6.4 mph 94 % 0.0 in
00:29 6.5 °F 5.6 °F 1016.8 in South 2.7 mph 10.1 mph 94 % 0.0 in
00:31 6.6 °F 5.7 °F 1016.8 in SSW 3.5 mph 11.9 mph 94 % 0.0 in
00:35 6.6 °F 5.7 °F 1016.8 in SSW 5.0 mph 11.9 mph 94 % 0.0 in
00:38 6.6 °F 5.7 °F 1016.8 in SSW 5.8 mph 11.9 mph 94 % 0.0 in
00:41 6.7 °F 5.8 °F 1016.8 in SSW 5.1 mph 10.5 mph 94 % 0.0 in
00:46 6.7 °F 5.8 °F 1016.1 in South 4.5 mph 10.1 mph 94 % 0.0 in
00:49 6.6 °F 5.7 °F 1016.1 in SSW 5.1 mph 10.1 mph 94 % 0.0 in
00:54 6.8 °F 5.9 °F 1016.1 in SSW 4.3 mph 10.1 mph 94 % 0.0 in
00:55 6.8 °F 5.9 °F 1016.1 in SSW 4.2 mph 10.1 mph 94 % 0.0 in
00:56 6.8 °F 5.9 °F 1016.1 in SSW 4.0 mph 9.0 mph 94 % 0.0 in
01:01 6.9 °F 6.0 °F 1016.8 in SSW 3.9 mph 9.0 mph 94 % 0.0 in
01:06 7.0 °F 5.9 °F 1016.8 in WSW 5.0 mph 12.2 mph 93 % 0.0 in
01:07 7.0 °F 5.9 °F 1016.8 in WSW 5.0 mph 12.2 mph 93 % 0.0 in
01:09 7.1 °F 6.1 °F 1016.8 in WSW 5.0 mph 12.2 mph 93 % 0.0 in
01:14 7.1 °F 6.1 °F 1016.8 in SW 5.5 mph 12.6 mph 93 % 0.0 in
01:15 7.2 °F 6.2 °F 1016.8 in SW 6.0 mph 12.6 mph 93 % 0.0 in
01:18 7.2 °F 6.2 °F 1016.8 in SW 6.1 mph 12.6 mph 93 % 0.0 in
01:23 7.3 °F 6.2 °F 1016.8 in SW 5.5 mph 17.7 mph 93 % 0.0 in
01:24 7.3 °F 6.2 °F 1016.8 in WSW 6.1 mph 17.7 mph 93 % 0.0 in
01:27 7.4 °F 6.3 °F 1016.8 in WSW 6.0 mph 17.7 mph 93 % 0.0 in
01:33 7.5 °F 6.3 °F 1016.8 in WSW 7.2 mph 14.8 mph 92 % 0.0 in
01:35 7.6 °F 6.4 °F 1016.8 in WSW 6.4 mph 14.8 mph 92 % 0.0 in
01:40 7.7 °F 6.5 °F 1016.8 in West 6.0 mph 12.2 mph 92 % 0.0 in
01:42 7.7 °F 6.3 °F 1016.8 in SW 5.8 mph 12.2 mph 91 % 0.0 in
01:47 7.9 °F 6.5 °F 1016.1 in SW 7.1 mph 13.0 mph 91 % 0.0 in
01:49 7.9 °F 6.5 °F 1016.1 in SW 7.4 mph 13.0 mph 91 % 0.0 in
01:54 8.0 °F 6.4 °F 1016.1 in WSW 7.9 mph 19.5 mph 90 % 0.0 in
01:59 8.0 °F 6.3 °F 1016.8 in West 6.8 mph 31.7 mph 89 % 0.0 in
02:04 8.2 °F 6.5 °F 1016.8 in SW 8.7 mph 31.7 mph 89 % 0.0 in
02:05 8.2 °F 6.3 °F 1016.8 in SW 9.5 mph 31.7 mph 88 % 0.0 in
02:10 8.2 °F 6.3 °F 1016.8 in SW 10.1 mph 19.5 mph 88 % 0.0 in
02:15 8.3 °F 6.3 °F 1016.1 in SW 8.8 mph 16.6 mph 87 % 0.0 in
02:17 8.3 °F 6.3 °F 1016.1 in SW 8.7 mph 19.5 mph 87 % 0.0 in
02:21 8.3 °F 6.1 °F 1016.1 in SW 8.7 mph 19.5 mph 86 % 0.0 in
02:23 8.3 °F 6.1 °F 1016.1 in SW 8.0 mph 19.5 mph 86 % 0.0 in
02:27 8.4 °F 6.2 °F 1016.1 in SW 6.8 mph 19.5 mph 86 % 0.0 in
02:32 8.4 °F 6.2 °F 1016.1 in WSW 5.3 mph 10.5 mph 86 % 0.0 in
02:34 8.5 °F 6.1 °F 1016.1 in West 5.5 mph 13.7 mph 85 % 0.0 in
02:39 8.5 °F 6.1 °F 1016.1 in WSW 7.1 mph 19.5 mph 85 % 0.0 in
02:40 8.5 °F 6.1 °F 1016.1 in WSW 7.4 mph 19.5 mph 85 % 0.0 in
02:45 8.6 °F 6.1 °F 1016.1 in SW 8.5 mph 19.5 mph 84 % 0.0 in
02:50 8.6 °F 6.1 °F 1016.1 in SW 8.7 mph 16.6 mph 84 % 0.0 in
02:51 8.6 °F 6.1 °F 1016.1 in SW 8.7 mph 16.6 mph 84 % 0.0 in
02:54 8.6 °F 5.9 °F 1016.1 in WSW 7.9 mph 16.6 mph 83 % 0.0 in
02:58 8.6 °F 5.9 °F 1016.1 in WSW 7.6 mph 15.4 mph 83 % 0.0 in
03:01 8.7 °F 6.0 °F 1016.1 in WSW 8.0 mph 16.3 mph 83 % 0.0 in
03:06 8.6 °F 5.7 °F 1016.1 in SW 8.5 mph 16.6 mph 82 % 0.0 in
03:07 8.7 °F 5.8 °F 1016.1 in SW 8.5 mph 16.6 mph 82 % 0.0 in
03:12 8.7 °F 5.8 °F 1016.1 in SW 6.8 mph 16.6 mph 82 % 0.0 in
03:14 8.7 °F 5.6 °F 1015.1 in SW 6.6 mph 15.4 mph 81 % 0.0 in
03:19 8.7 °F 5.6 °F 1015.1 in WSW 6.8 mph 12.2 mph 81 % 0.0 in
03:20 8.7 °F 5.6 °F 1015.1 in WSW 6.6 mph 12.2 mph 81 % 0.0 in
03:25 8.8 °F 5.6 °F 1015.1 in WSW 6.0 mph 10.5 mph 80 % 0.0 in
03:26 8.8 °F 5.6 °F 1015.1 in SW 6.0 mph 10.1 mph 80 % 0.0 in
03:30 8.7 °F 5.4 °F 1015.1 in SW 6.1 mph 10.1 mph 80 % 0.0 in
03:33 8.7 °F 5.4 °F 1015.1 in SW 5.6 mph 10.1 mph 80 % 0.0 in
03:36 8.7 °F 5.3 °F 1015.1 in SW 5.6 mph 13.0 mph 79 % 0.0 in
03:39 8.7 °F 5.3 °F 1015.1 in WSW 6.0 mph 13.0 mph 79 % 0.0 in
03:44 8.8 °F 5.3 °F 1015.1 in WSW 7.1 mph 18.0 mph 79 % 0.0 in
03:49 8.8 °F 5.2 °F 1015.1 in SW 7.6 mph 18.0 mph 78 % 0.0 in
03:53 8.8 °F 5.2 °F 1015.1 in SW 7.9 mph 17.7 mph 78 % 0.0 in
03:57 8.9 °F 5.3 °F 1015.1 in SW 7.7 mph 16.3 mph 78 % 0.0 in
03:58 8.9 °F 5.3 °F 1015.1 in SW 7.9 mph 16.3 mph 78 % 0.0 in
04:03 8.9 °F 5.1 °F 1015.1 in SW 8.0 mph 15.8 mph 77 % 0.0 in
04:08 8.9 °F 5.1 °F 1015.1 in WSW 7.7 mph 15.8 mph 77 % 0.0 in
04:13 9.0 °F 5.0 °F 1015.1 in WSW 7.2 mph 15.8 mph 76 % 0.0 in
04:18 9.0 °F 5.0 °F 1014.1 in WSW 8.4 mph 17.7 mph 76 % 0.0 in
04:21 9.0 °F 5.0 °F 1014.1 in WSW 8.2 mph 17.7 mph 76 % 0.0 in
04:26 9.0 °F 5.0 °F 1014.1 in SW 7.6 mph 17.7 mph 76 % 0.0 in
04:28 9.0 °F 4.8 °F 1016.1 in SW 6.1 mph 11.9 mph 75 % 0.0 in
04:33 9.1 °F 4.9 °F 1016.1 in WSW 6.0 mph 13.0 mph 75 % 0.0 in
04:34 9.1 °F 4.9 °F 1016.1 in WSW 6.1 mph 13.0 mph 75 % 0.0 in
04:39 9.1 °F 4.9 °F 1016.1 in WSW 6.1 mph 13.0 mph 75 % 0.0 in
04:41 9.0 °F 4.8 °F 1016.1 in SW 7.1 mph 21.2 mph 75 % 0.0 in
04:46 8.9 °F 4.7 °F 1015.1 in SW 6.3 mph 21.2 mph 75 % 0.0 in
04:48 8.9 °F 4.7 °F 1015.1 in SW 6.9 mph 21.2 mph 75 % 0.0 in
04:49 8.9 °F 4.7 °F 1015.1 in SW 7.1 mph 21.2 mph 75 % 0.0 in
04:53 8.9 °F 4.5 °F 1015.1 in SW 6.9 mph 18.0 mph 74 % 0.0 in
04:56 8.8 °F 4.4 °F 1015.1 in WSW 7.4 mph 18.0 mph 74 % 0.0 in
05:02 8.7 °F 4.3 °F 1015.1 in SW 6.0 mph 11.9 mph 74 % 0.0 in
05:05 8.6 °F 4.2 °F 1015.1 in SW 4.7 mph 9.7 mph 74 % 0.0 in
05:10 8.5 °F 4.1 °F 1015.1 in SW 4.3 mph 8.7 mph 74 % 0.0 in
05:11 8.5 °F 4.1 °F 1015.1 in SW 4.2 mph 8.7 mph 74 % 0.0 in
05:12 8.5 °F 4.1 °F 1015.1 in SW 4.2 mph 8.7 mph 74 % 0.0 in
05:17 8.4 °F 3.8 °F 1015.1 in SW 4.7 mph 8.7 mph 73 % 0.0 in
05:18 8.3 °F 3.7 °F 1015.1 in SW 4.7 mph 8.7 mph 73 % 0.0 in
05:23 8.3 °F 3.7 °F 1015.1 in SW 4.2 mph 7.9 mph 73 % 0.0 in
05:24 8.3 °F 3.7 °F 1015.1 in SW 4.3 mph 7.9 mph 73 % 0.0 in
05:29 8.2 °F 3.7 °F 1015.1 in SW 4.8 mph 7.9 mph 73 % 0.0 in
05:32 8.3 °F 3.7 °F 1015.1 in WSW 4.3 mph 7.9 mph 73 % 0.0 in
05:36 8.2 °F 3.7 °F 1015.1 in WSW 4.7 mph 13.0 mph 73 % 0.0 in
05:37 8.2 °F 3.7 °F 1015.1 in SW 5.5 mph 13.7 mph 73 % 0.0 in
05:42 8.2 °F 3.7 °F 1015.1 in SW 6.6 mph 13.7 mph 73 % 0.0 in
05:48 8.1 °F 3.6 °F 1014.1 in WSW 5.1 mph 11.9 mph 73 % 0.0 in
05:51 8.0 °F 3.4 °F 1014.1 in WSW 4.2 mph 11.9 mph 73 % 0.0 in
05:53 8.0 °F 3.4 °F 1014.1 in WSW 4.2 mph 7.9 mph 73 % 0.0 in
05:58 7.9 °F 3.6 °F 1014.1 in SW 4.5 mph 10.1 mph 74 % 0.0 in
05:59 7.9 °F 3.6 °F 1014.1 in SW 4.3 mph 10.1 mph 74 % 0.0 in
06:04 7.8 °F 3.4 °F 1014.1 in SSW 4.5 mph 10.1 mph 74 % 0.0 in
06:05 7.8 °F 3.4 °F 1014.1 in SSW 4.3 mph 10.1 mph 74 % 0.0 in
06:10 7.5 °F 3.2 °F 1014.1 in SSW 2.9 mph 9.0 mph 74 % 0.0 in
06:13 7.4 °F 3.1 °F 1014.1 in SSW 2.7 mph 6.1 mph 74 % 0.0 in
06:18 7.3 °F 2.9 °F 1014.1 in SSW 4.2 mph 9.0 mph 74 % 0.0 in
06:19 7.3 °F 2.9 °F 1014.1 in SSW 3.7 mph 9.0 mph 74 % 0.0 in
06:24 7.4 °F 3.1 °F 1014.1 in SSW 3.7 mph 9.0 mph 74 % 0.0 in
06:26 7.4 °F 3.1 °F 1014.1 in SSW 3.1 mph 7.2 mph 74 % 0.0 in
06:30 7.3 °F 2.9 °F 1013.1 in SSW 2.9 mph 6.4 mph 74 % 0.0 in
06:33 7.1 °F 2.8 °F 1013.1 in SSW 2.1 mph 6.1 mph 74 % 0.0 in
06:38 6.5 °F 2.2 °F 1013.1 in WSW 1.9 mph 6.1 mph 74 % 0.0 in
06:43 6.0 °F 1.7 °F 1013.1 in West 1.6 mph 6.1 mph 74 % 0.0 in
06:45 5.8 °F 1.7 °F 1013.1 in WNW 1.8 mph 5.5 mph 75 % 0.0 in
06:50 5.4 °F 1.1 °F 1013.1 in WNW 3.4 mph 9.0 mph 74 % 0.0 in
06:51 5.4 °F 1.1 °F 1013.1 in WNW 3.7 mph 9.0 mph 74 % 0.0 in
06:52 5.4 °F 1.1 °F 1013.1 in WNW 3.7 mph 9.0 mph 74 % 0.0 in
06:57 5.0 °F 0.7 °F 1013.1 in WNW 1.9 mph 5.0 mph 74 % 0.0 in
06:58 4.9 °F 0.8 °F 1012.1 in WNW 1.6 mph 5.0 mph 75 % 0.0 in
07:03 4.7 °F 0.7 °F 1012.1 in NNW 0.6 mph 5.8 mph 75 % 0.0 in
07:08 4.4 °F 0.3 °F 1012.1 in NW 1.6 mph 5.8 mph 75 % 0.0 in
07:09 4.4 °F 0.3 °F 1012.1 in NW 1.6 mph 5.8 mph 75 % 0.0 in
07:14 4.1 °F 0.1 °F 1012.1 in NW 0.8 mph 4.3 mph 75 % 0.0 in
07:15 4.1 °F 0.1 °F 1012.1 in NW 0.6 mph 4.0 mph 75 % 0.0 in
07:19 3.8 °F -0.1 °F 1012.1 in NW 0.2 mph 5.5 mph 76 % 0.0 in
07:21 3.8 °F -0.1 °F 1012.1 in NNW 0.5 mph 5.5 mph 76 % 0.0 in
07:26 3.7 °F -0.2 °F 1012.1 in NW 1.4 mph 6.1 mph 76 % 0.0 in
07:29 3.6 °F -0.2 °F 1012.1 in NW 1.6 mph 6.1 mph 76 % 0.0 in
07:31 3.5 °F -0.3 °F 1012.1 in NW 1.3 mph 6.1 mph 76 % 0.0 in
07:35 3.3 °F -0.6 °F 1012.1 in NW 1.4 mph 5.0 mph 76 % 0.0 in
07:36 3.3 °F -0.3 °F 1012.1 in NW 1.1 mph 5.0 mph 77 % 0.0 in
07:40 3.2 °F -0.4 °F 1012.1 in NW 1.1 mph 5.0 mph 77 % 0.0 in
07:45 3.2 °F -0.4 °F 1012.1 in WNW 0.3 mph 4.7 mph 77 % 0.0 in
07:47 3.1 °F -0.6 °F 1012.1 in NW 0.6 mph 4.7 mph 77 % 0.0 in
07:49 3.1 °F -0.6 °F 1012.1 in NW 0.6 mph 4.7 mph 77 % 0.0 in
07:53 3.1 °F -0.4 °F 1012.1 in NW 1.3 mph 5.8 mph 78 % 0.0 in
07:58 3.3 °F -0.2 °F 1012.1 in NW 2.4 mph 5.8 mph 78 % 0.0 in
08:03 3.3 °F -0.2 °F 1012.1 in NW 2.6 mph 6.9 mph 78 % 0.0 in
08:04 3.3 °F -0.2 °F 1012.1 in NW 2.6 mph 6.9 mph 78 % 0.0 in
08:09 3.4 °F 0.1 °F 1012.1 in NW 1.8 mph 6.9 mph 79 % 0.0 in
08:14 3.3 °F 0.0 °F 1012.1 in NW 0.3 mph 2.1 mph 79 % 0.0 in
08:16 3.3 °F 0.0 °F 1012.1 in NW 0.2 mph 2.1 mph 79 % 0.0 in
08:21 3.2 °F 0.1 °F 1012.1 in NW 0.5 mph 4.7 mph 80 % 0.0 in
08:22 3.2 °F 0.1 °F 1012.1 in NW 0.5 mph 4.7 mph 80 % 0.0 in
08:27 3.2 °F 0.3 °F 1012.1 in NW 0.6 mph 5.0 mph 81 % 0.0 in
08:29 3.2 °F 0.3 °F 1013.1 in NW 0.6 mph 5.0 mph 81 % 0.0 in
08:34 3.2 °F 0.3 °F 1013.1 in NW 0.6 mph 5.0 mph 81 % 0.0 in
08:35 3.2 °F 0.3 °F 1013.1 in NW 0.6 mph 5.0 mph 81 % 0.0 in
08:40 3.2 °F 0.4 °F 1013.1 in Calm     82 % 0.0 in
08:43 3.3 °F 0.5 °F 1013.1 in Calm     82 % 0.0 in
08:48 3.5 °F 0.7 °F 1013.1 in WSW 0.8 mph 4.7 mph 82 % 0.0 in
08:49 3.6 °F 1.0 °F 1013.1 in WSW 0.8 mph 4.7 mph 83 % 0.0 in
08:54 3.8 °F 1.2 °F 1013.1 in SW 1.3 mph 4.7 mph 83 % 0.0 in
08:56 3.8 °F 1.2 °F 1013.1 in SW 0.8 mph 4.0 mph 83 % 0.0 in
09:01 4.2 °F 1.7 °F 1012.1 in South 1.3 mph 4.7 mph 84 % 0.0 in
09:06 4.5 °F 2.1 °F 1012.1 in SSE 2.4 mph 4.7 mph 84 % 0.0 in
09:08 4.6 °F 2.1 °F 1012.1 in SSE 2.6 mph 4.7 mph 84 % 0.0 in
09:12 5.0 °F 2.7 °F 1012.1 in South 1.4 mph 4.7 mph 85 % 0.0 in
09:13 5.2 °F 2.9 °F 1012.1 in SSW 1.6 mph 6.1 mph 85 % 0.0 in
09:18 5.7 °F 3.4 °F 1012.1 in SW 3.2 mph 9.0 mph 85 % 0.0 in
09:21 6.1 °F 3.8 °F 1012.1 in SW 4.5 mph 9.0 mph 85 % 0.0 in
09:26 7.1 °F 4.9 °F 1012.1 in SW 7.1 mph 13.7 mph 86 % 0.0 in
09:31 7.9 °F 5.9 °F 1012.1 in SW 7.4 mph 13.7 mph 87 % 0.0 in
09:34 8.2 °F 6.0 °F 1012.1 in SW 7.7 mph 11.9 mph 86 % 0.0 in
09:37 8.5 °F 6.4 °F 1012.1 in SW 8.2 mph 16.6 mph 87 % 0.0 in
09:42 8.9 °F 6.8 °F 1012.1 in SW 9.3 mph 16.9 mph 87 % 0.0 in
09:47 9.3 °F 7.2 °F 1012.1 in SW 8.2 mph 16.9 mph 87 % 0.0 in
09:49 9.3 °F 7.2 °F 1012.1 in SW 8.2 mph 16.9 mph 87 % 0.0 in
09:54 9.5 °F 7.3 °F 1012.1 in SW 7.2 mph 16.9 mph 86 % 0.0 in
09:59 9.9 °F 7.7 °F 1012.1 in SW 6.3 mph 12.2 mph 86 % 0.0 in
10:02 10.0 °F 7.6 °F 1012.1 in SW 6.1 mph 12.2 mph 85 % 0.0 in
10:03 10.1 °F 7.7 °F 1012.1 in SW 6.1 mph 9.7 mph 85 % 0.0 in
10:07 10.4 °F 8.0 °F 1012.1 in WSW 6.6 mph 16.3 mph 85 % 0.0 in
10:09 10.5 °F 7.9 °F 1012.1 in WSW 7.6 mph 16.3 mph 84 % 0.0 in
10:14 10.8 °F 8.2 °F 1014.1 in SW 8.7 mph 12.6 mph 84 % 0.0 in
10:17 10.9 °F 8.1 °F 1014.1 in SW 9.0 mph 12.6 mph 83 % 0.0 in
10:22 11.1 °F 8.2 °F 1014.1 in SW 8.5 mph 12.6 mph 82 % 0.0 in
10:23 11.2 °F 8.1 °F 1014.1 in SW 8.0 mph 12.6 mph 81 % 0.0 in
10:28 11.3 °F 8.0 °F 1013.1 in SW 8.2 mph 14.0 mph 80 % 0.0 in
10:33 11.5 °F 7.8 °F 1013.1 in WSW 9.0 mph 14.0 mph 78 % 0.0 in
10:38 11.6 °F 7.7 °F 1013.1 in SW 7.6 mph 15.8 mph 77 % 0.0 in
10:40 11.6 °F 7.7 °F 1013.1 in SW 7.9 mph 15.8 mph 77 % 0.0 in
10:45 11.7 °F 7.4 °F 1014.1 in SW 8.7 mph 20.9 mph 75 % 0.0 in
10:46 11.7 °F 7.4 °F 1014.1 in SW 9.8 mph 20.9 mph 75 % 0.0 in
10:47 11.7 °F 7.4 °F 1014.1 in SW 10.0 mph 20.9 mph 75 % 0.0 in
10:52 11.8 °F 7.3 °F 1014.1 in SW 10.0 mph 20.9 mph 74 % 0.0 in
10:54 11.9 °F 7.2 °F 1014.1 in SW 9.3 mph 16.6 mph 73 % 0.0 in
13:14 11.7 °F 4.9 °F 1011.1 in West 6.1 mph 13.0 mph 63 % 0.0 in
13:16 11.7 °F 4.9 °F 1011.1 in West 6.8 mph 16.9 mph 63 % 0.0 in
13:19 11.7 °F 4.9 °F 1011.1 in West 7.6 mph 17.2 mph 63 % 0.0 in
13:22 11.7 °F 4.9 °F 1011.1 in West 7.9 mph 17.2 mph 63 % 0.0 in
13:25 11.6 °F 5.0 °F 1011.1 in West 7.9 mph 17.2 mph 64 % 0.0 in
13:28 11.6 °F 5.0 °F 1011.1 in West 6.9 mph 17.2 mph 64 % 0.0 in
13:31 11.6 °F 5.0 °F 1011.1 in West 7.4 mph 26.2 mph 64 % 0.0 in
13:36 11.6 °F 5.0 °F 1011.1 in West 8.2 mph 26.2 mph 64 % 0.0 in
13:37 11.6 °F 5.0 °F 1011.1 in West 8.4 mph 26.2 mph 64 % 0.0 in
13:42 11.7 °F 5.1 °F 1011.1 in West 9.2 mph 24.5 mph 64 % 0.0 in
13:43 11.7 °F 5.1 °F 1011.1 in West 8.5 mph 24.5 mph 64 % 0.0 in
13:45 11.7 °F 5.1 °F 1011.1 in West 8.0 mph 24.5 mph 64 % 0.0 in
13:50 11.7 °F 5.1 °F 1011.1 in West 7.1 mph 17.7 mph 64 % 0.0 in
13:54 11.7 °F 5.1 °F 1011.1 in WNW 6.4 mph 17.7 mph 64 % 0.0 in
13:59 11.7 °F 5.1 °F 1011.1 in West 6.8 mph 15.4 mph 64 % 0.0 in
14:00 11.7 °F 5.3 °F 1011.1 in West 7.2 mph 15.4 mph 65 % 0.0 in
14:03 11.7 °F 5.3 °F 1011.1 in West 7.2 mph 15.4 mph 65 % 0.0 in
14:07 11.7 °F 5.3 °F 1011.1 in WSW 6.6 mph 15.4 mph 65 % 0.0 in
14:12 11.7 °F 5.3 °F 1011.1 in WSW 4.2 mph 11.9 mph 65 % 0.0 in
14:13 11.7 °F 5.3 °F 1011.1 in WSW 4.2 mph 11.9 mph 65 % 0.0 in
14:59 11.3 °F 5.2 °F 1011.1 in WSW 6.9 mph 14.0 mph 66 % 0.0 in
15:04 11.2 °F 5.1 °F 1011.1 in SW 5.5 mph 9.7 mph 66 % 0.0 in
15:05 11.1 °F 5.0 °F 1011.1 in SW 5.3 mph 9.7 mph 66 % 0.0 in
15:08 11.1 °F 5.0 °F 1011.1 in SW 5.3 mph 9.7 mph 66 % 0.0 in
15:13 11.0 °F 4.9 °F 1011.1 in SW 5.5 mph 12.2 mph 66 % 0.0 in
15:14 11.0 °F 4.9 °F 1010.0 in SW 5.5 mph 12.2 mph 66 % 0.0 in
15:19 10.9 °F 4.8 °F 1010.0 in WSW 4.8 mph 9.0 mph 66 % 0.0 in
15:21 10.9 °F 5.0 °F 1010.0 in WSW 4.0 mph 7.9 mph 67 % 0.0 in
15:25 10.9 °F 5.0 °F 1010.0 in SW 3.7 mph 7.9 mph 67 % 0.0 in
15:27 10.9 °F 5.0 °F 1010.0 in SW 3.4 mph 6.4 mph 67 % 0.0 in
15:32 10.7 °F 4.8 °F 1010.0 in SW 2.3 mph 4.7 mph 67 % 0.0 in
15:35 10.7 °F 4.8 °F 1010.0 in SW 2.1 mph 7.6 mph 67 % 0.0 in
15:40 10.7 °F 4.8 °F 1010.0 in WSW 3.4 mph 11.1 mph 67 % 0.0 in
15:44 10.6 °F 4.7 °F 1010.0 in WSW 3.7 mph 11.1 mph 67 % 0.0 in
15:47 10.6 °F 4.9 °F 1010.0 in WSW 3.2 mph 10.5 mph 68 % 0.0 in
15:52 10.5 °F 4.8 °F 1010.0 in WSW 2.9 mph 9.7 mph 68 % 0.0 in
15:57 10.4 °F 4.7 °F 1010.0 in WSW 4.2 mph 9.7 mph 68 % 0.0 in
15:58 10.4 °F 4.7 °F 1010.0 in WSW 4.7 mph 9.7 mph 68 % 0.0 in
16:03 10.4 °F 4.7 °F 1010.0 in WSW 4.5 mph 10.1 mph 68 % 0.0 in
16:08 10.3 °F 4.7 °F 1010.0 in SW 4.3 mph 10.1 mph 68 % 0.0 in
16:10 10.3 °F 4.7 °F 1010.0 in WSW 4.3 mph 10.1 mph 68 % 0.0 in
16:15 10.2 °F 4.8 °F 1010.0 in West 5.0 mph 14.0 mph 69 % 0.0 in
16:19 10.2 °F 4.8 °F 1010.0 in WSW 5.5 mph 14.0 mph 69 % 0.0 in
16:23 10.1 °F 4.7 °F 1010.0 in WSW 4.7 mph 11.6 mph 69 % 0.0 in
16:27 10.1 °F 4.7 °F 1010.0 in WSW 4.0 mph 8.7 mph 69 % 0.0 in
16:28 10.1 °F 4.7 °F 1010.0 in WSW 4.0 mph 8.7 mph 69 % 0.0 in
16:33 10.0 °F 4.6 °F 1010.0 in WSW 3.7 mph 8.7 mph 69 % 0.0 in
16:37 9.9 °F 4.7 °F 1010.0 in SW 3.2 mph 5.5 mph 70 % 0.0 in
16:39 9.8 °F 4.6 °F 1010.0 in SSW 3.2 mph 5.5 mph 70 % 0.0 in
16:44 9.7 °F 4.5 °F 1010.0 in SSW 2.1 mph 5.5 mph 70 % 0.0 in
16:45 9.7 °F 4.5 °F 1010.0 in SSW 2.1 mph 5.5 mph 70 % 0.0 in
16:46 9.7 °F 4.5 °F 1010.0 in SSW 1.8 mph 5.5 mph 70 % 0.0 in
16:51 9.7 °F 4.7 °F 1010.0 in SE 0.3 mph 2.6 mph 71 % 0.0 in
16:52 9.7 °F 4.7 °F 1010.0 in South 0.5 mph 2.6 mph 71 % 0.0 in
16:57 9.6 °F 4.6 °F 1010.0 in South 1.0 mph 4.3 mph 71 % 0.0 in
16:59 9.6 °F 4.6 °F 1010.0 in SSE 1.1 mph 4.3 mph 71 % 0.0 in
17:03 9.6 °F 4.6 °F 1010.0 in South 1.6 mph 4.7 mph 71 % 0.0 in
17:04 9.5 °F 4.5 °F 1010.0 in South 1.8 mph 4.7 mph 71 % 0.0 in
17:09 9.6 °F 4.6 °F 1010.0 in SSW 2.7 mph 5.8 mph 71 % 0.0 in
17:10 9.6 °F 4.6 °F 1010.0 in SSW 2.9 mph 5.8 mph 71 % 0.0 in
17:15 9.6 °F 4.8 °F 1010.0 in SSW 2.9 mph 5.8 mph 72 % 0.0 in
17:16 9.6 °F 4.8 °F 1010.0 in SW 2.6 mph 5.8 mph 72 % 0.0 in
17:21 9.5 °F 4.7 °F 1010.0 in SSW 1.0 mph 5.8 mph 72 % 0.0 in
17:24 9.5 °F 4.7 °F 1010.0 in South 0.5 mph 4.7 mph 72 % 0.0 in
17:29 9.4 °F 4.6 °F 1010.0 in South 1.1 mph 4.7 mph 72 % 0.0 in
17:34 9.3 °F 4.5 °F 1010.0 in SSE 1.3 mph 4.0 mph 72 % 0.0 in
17:36 9.3 °F 4.5 °F 1010.0 in SSE 0.8 mph 4.0 mph 72 % 0.0 in
17:41 9.3 °F 4.5 °F 1010.0 in SE 0.5 mph 2.1 mph 72 % 0.0 in
17:45 9.3 °F 4.5 °F 1010.0 in Calm     72 % 0.0 in
17:49 9.3 °F 4.5 °F 1010.0 in SSW 0.3 mph 4.7 mph 72 % 0.0 in
17:51 9.2 °F 4.4 °F 1010.0 in SSW 1.0 mph 4.7 mph 72 % 0.0 in
17:56 9.2 °F 4.4 °F 1010.0 in SSW 2.3 mph 6.1 mph 72 % 0.0 in
17:59 9.1 °F 4.5 °F 1010.0 in SSW 3.4 mph 8.7 mph 73 % 0.0 in
18:00 9.1 °F 4.5 °F 1010.0 in SSW 3.5 mph 8.7 mph 73 % 0.0 in
20:35 9.3 °F 4.9 °F 1008.0 in SSW 1.3 mph 4.0 mph 74 % 0.0 in
20:36 9.3 °F 4.9 °F 1008.0 in SSW 1.3 mph 4.0 mph 74 % 0.0 in
20:39 9.3 °F 4.9 °F 1008.0 in SW 1.0 mph 3.5 mph 74 % 0.0 in
20:41 9.3 °F 4.9 °F 1008.0 in SW 0.5 mph 3.5 mph 74 % 0.0 in
20:46 9.1 °F 4.7 °F 1009.0 in SW 0.2 mph 3.2 mph 74 % 0.0 in
20:47 9.1 °F 4.7 °F 1009.0 in SW 0.2 mph 1.8 mph 74 % 0.0 in
20:49 9.1 °F 4.7 °F 1009.0 in Calm     74 % 0.0 in
20:54 9.0 °F 4.6 °F 1009.0 in Calm   1.4 mph 74 % 0.0 in
20:59 8.8 °F 4.6 °F 1009.0 in Calm   2.1 mph 75 % 0.0 in
21:00 8.8 °F 4.6 °F 1009.0 in Calm   2.1 mph 75 % 0.0 in
21:05 8.8 °F 4.6 °F 1009.0 in West 0.5 mph 4.3 mph 75 % 0.0 in
21:08 8.7 °F 4.5 °F 1009.0 in WSW 0.8 mph 4.3 mph 75 % 0.0 in
21:10 8.7 °F 4.5 °F 1009.0 in WSW 1.4 mph 4.3 mph 75 % 0.0 in
21:14 8.7 °F 4.5 °F 1008.0 in WSW 1.8 mph 4.3 mph 75 % 0.0 in
21:19 8.7 °F 4.5 °F 1008.0 in WSW 0.8 mph 4.0 mph 75 % 0.0 in
21:23 8.6 °F 4.6 °F 1008.0 in West 0.6 mph 4.3 mph 76 % 0.0 in
21:26 8.6 °F 4.6 °F 1008.0 in West 0.6 mph 4.3 mph 76 % 0.0 in
21:30 8.6 °F 4.6 °F 1009.0 in WSW 1.0 mph 4.3 mph 76 % 0.0 in
21:32 8.6 °F 4.6 °F 1009.0 in WSW 0.6 mph 4.0 mph 76 % 0.0 in
21:35 8.6 °F 4.6 °F 1009.0 in SW 0.5 mph 4.0 mph 76 % 0.0 in
21:37 8.6 °F 4.6 °F 1009.0 in SSW 0.6 mph 4.0 mph 76 % 0.0 in
21:42 8.5 °F 4.5 °F 1009.0 in SW 1.6 mph 5.5 mph 76 % 0.0 in
21:43 8.5 °F 4.5 °F 1009.0 in SW 1.6 mph 5.5 mph 76 % 0.0 in
21:48 8.4 °F 4.4 °F 1009.0 in WSW 1.8 mph 5.5 mph 76 % 0.0 in
21:49 8.4 °F 4.4 °F 1009.0 in WSW 1.6 mph 5.5 mph 76 % 0.0 in
21:54 8.3 °F 4.3 °F 1009.0 in WSW 0.2 mph 3.2 mph 76 % 0.0 in
21:59 8.3 °F 4.3 °F 1009.0 in SW 0.5 mph 4.3 mph 76 % 0.0 in
22:04 8.2 °F 4.4 °F 1009.0 in SW 0.5 mph 4.3 mph 77 % 0.0 in
22:05 8.2 °F 4.4 °F 1009.0 in SW 0.5 mph 4.3 mph 77 % 0.0 in
22:08 8.1 °F 4.3 °F 1009.0 in SW 0.2 mph 1.8 mph 77 % 0.0 in
22:13 8.1 °F 4.3 °F 1009.0 in Calm     77 % 0.0 in
22:18 8.0 °F 4.2 °F 1009.0 in South 0.6 mph 4.3 mph 77 % 0.0 in
22:23 8.0 °F 4.2 °F 1009.0 in South 0.8 mph 4.3 mph 77 % 0.0 in
22:24 7.9 °F 4.3 °F 1009.0 in South 0.8 mph 4.3 mph 78 % 0.0 in
22:29 7.8 °F 4.2 °F 1008.0 in WNW 0.2 mph 3.2 mph 78 % 0.0 in
22:34 7.7 °F 4.1 °F 1008.0 in Calm     78 % 0.0 in
22:38 7.7 °F 4.1 °F 1008.0 in Calm     78 % 0.0 in
22:39 7.7 °F 4.1 °F 1008.0 in Calm   2.6 mph 78 % 0.0 in
22:44 7.6 °F 4.2 °F 1008.0 in WNW 0.3 mph 3.2 mph 79 % 0.0 in
22:47 7.5 °F 4.1 °F 1008.0 in WNW 0.3 mph 3.2 mph 79 % 0.0 in
22:52 7.5 °F 4.1 °F 1008.0 in Calm     79 % 0.0 in
22:57 7.3 °F 3.9 °F 1008.0 in Calm     79 % 0.0 in
22:59 7.3 °F 3.9 °F 1008.0 in WNW 0.2 mph 3.2 mph 79 % 0.0 in
23:03 7.2 °F 3.8 °F 1008.0 in WNW 0.6 mph 3.2 mph 79 % 0.0 in
23:04 7.2 °F 3.8 °F 1008.0 in WNW 0.6 mph 3.2 mph 79 % 0.0 in
23:09 7.1 °F 3.7 °F 1008.0 in West 1.0 mph 3.2 mph 79 % 0.0 in
23:14 6.9 °F 3.7 °F 1008.0 in West 0.8 mph 3.2 mph 80 % 0.0 in
23:16 6.8 °F 3.6 °F 1008.0 in WSW 0.6 mph 3.2 mph 80 % 0.0 in
23:21 6.6 °F 3.4 °F 1008.0 in Calm     80 % 0.0 in
23:22 6.6 °F 3.4 °F 1008.0 in Calm     80 % 0.0 in
23:26 6.5 °F 3.3 °F 1008.0 in Calm     80 % 0.0 in
23:30 6.4 °F 3.2 °F 1008.0 in SW 0.5 mph 4.0 mph 80 % 0.0 in
23:33 6.1 °F 2.9 °F 1008.0 in SW 0.5 mph 4.0 mph 80 % 0.0 in
23:36 6.0 °F 2.8 °F 1008.0 in SW 0.5 mph 4.0 mph 80 % 0.0 in
23:41 5.8 °F 2.8 °F 1008.0 in WSW 0.3 mph 3.2 mph 81 % 0.0 in
23:42 5.8 °F 2.8 °F 1008.0 in WSW 0.3 mph 3.2 mph 81 % 0.0 in
23:47 5.5 °F 2.5 °F 1008.0 in WSW 0.3 mph 3.2 mph 81 % 0.0 in
23:52 5.4 °F 2.4 °F 1008.0 in Calm     81 % 0.0 in
23:57 5.2 °F 2.2 °F 1008.0 in Calm     81 % 0.0 in
Vremenska postaja Senovo
Podatki zbrani iz Weather Underground - 3.25 mb

Script developed by  Jim McMurry - jmcmurry@mwt.net Adapted for the template by  Wim van der Kuil - Leuven-Template.eu

Vremenski podatki so objavljeni na:

European Weather Network

WeatherCloud

Weather Underground

AWEKAS

HAMweather, WeatherForYou, PWS Weather

MapView

Geostik

Slovenia weather network

Oprema, ki se uporablja:

Vremenski program
Cumulus

Vremenski server
Asus

Cumulus

Asus